Dolfijngracht — PBSZ — position and weather

sailwx.info

Track history (hours):
 
Tides and Currents Weather Stations Pressure Air Temp Water Temp Dewpoint Dewpoint Depression Visibility Wind Speed Wind Dir Waves Ship Positions

Dolfijngracht

Last reported at 2018-Jul-21 21:25 UTC. Time now 2018-Jul-23 05:57 UTC.
Position N 27°12' W 090°52'.

Length 157 m; draft 7 m.

Type: Cargo ship. MMSI: 245033000.

Date/timePositionNaut miles runAvg speedWind from/ knotsBaromVisibWave heightAir tempDewpointWater temp
2018-Jul-21 21:25N 27°12' W 090°52'615.7
2018-Jul-21 21:00N 27°15' W 090°59'6915.6
2018-Jul-21 16:36N 27°42' W 092°10'415.3
2018-Jul-21 16:21N 27°43' W 092°14'3314.3
2018-Jul-21 14:02N 28°02' W 092°45'214.0
2018-Jul-21 13:54N 28°04' W 092°46'814.0
2018-Jul-21 13:20N 28°11' W 092°51'414.0
2018-Jul-21 13:00N 28°14' W 092°55'714.4
2018-Jul-21 12:30N 28°18' W 093°02'714.8
2018-Jul-21 12:00N 28°22' W 093°08'814.8
2018-Jul-21 11:29N 28°27' W 093°15'714.5
2018-Jul-21 11:00N 28°31' W 093°22'714.7
2018-Jul-21 10:30N 28°35' W 093°29'814.9
2018-Jul-21 10:00N 28°39' W 093°36'714.8
2018-Jul-21 09:30N 28°44' W 093°43'714.6
2018-Jul-21 08:59N 28°48' W 093°50'714.6
2018-Jul-21 08:30N 28°52' W 093°56'814.7
2018-Jul-21 08:00N 28°56' W 094°03'714.7
2018-Jul-21 07:30N 29°00' W 094°10'714.5
2018-Jul-21 07:00N 29°05' W 094°16'714.2
2018-Jul-21 06:30N 29°08' W 094°24'713.7
2018-Jul-21 06:00N 29°11' W 094°30'713.3
2018-Jul-21 05:30N 29°16' W 094°36'1 2.9
2018-Jul-21 05:00N 29°17' W 094°37'0 0.0
2018-Jul-21 04:30N 29°17' W 094°37'0 0.0
2018-Jul-21 03:57N 29°17' W 094°37'0 0.0
2018-Jul-21 03:30N 29°17' W 094°37'0 0.0
2018-Jul-21 03:00N 29°17' W 094°37'0 0.0
2018-Jul-21 02:30N 29°17' W 094°37'0 0.0
2018-Jul-21 02:00N 29°17' W 094°37'0 0.1
2018-Jul-21 01:30N 29°17' W 094°37'1 1.3
2018-Jul-21 01:00N 29°18' W 094°37'611.2
2018-Jul-21 00:30N 29°21' W 094°43'611.7
2018-Jul-21 00:00N 29°23' W 094°49'714.1
2018-Jul-20 23:30N 29°30' W 094°52'713.5
2018-Jul-20 23:00N 29°35' W 094°56'612.6
2018-Jul-20 22:30N 29°41' W 094°59'4 8.1
2018-Jul-20 22:00N 29°44' W 095°02'3 6.1
2018-Jul-20 21:30N 29°45' W 095°06'3 6.1
2018-Jul-20 21:00N 29°44' W 095°09'1 0.2
2018-Jul-20 14:24N 29°45' W 095°11'0 0.0
2018-Jul-20 13:54N 29°45' W 095°11'0 0.0
2018-Jul-20 13:27N 29°45' W 095°11'0 0.0
2018-Jul-20 13:00N 29°45' W 095°11'0 0.0
2018-Jul-20 12:30N 29°45' W 095°11'0 0.0
2018-Jul-20 11:57N 29°45' W 095°11'0 0.0
2018-Jul-20 11:30N 29°45' W 095°11'0 0.0
2018-Jul-20 10:57N 29°45' W 095°11'0 0.0
2018-Jul-20 10:27N 29°45' W 095°11'0 0.0
2018-Jul-20 09:57N 29°45' W 095°11'0 0.0
2018-Jul-20 09:30N 29°45' W 095°11'0 0.0
2018-Jul-20 09:00N 29°45' W 095°11'0 0.0
2018-Jul-20 08:30N 29°45' W 095°11'0 0.0
2018-Jul-20 08:00N 29°45' W 095°11'0 0.0
2018-Jul-20 07:24N 29°45' W 095°11'0 0.0
2018-Jul-20 07:00N 29°45' W 095°11'0 0.0
2018-Jul-20 06:30N 29°45' W 095°11'0 0.0
2018-Jul-20 06:00N 29°45' W 095°11'0 0.0
2018-Jul-20 05:30N 29°45' W 095°11'0 0.0
2018-Jul-20 05:00N 29°45' W 095°11'0 0.0
2018-Jul-20 04:30N 29°45' W 095°11'0 0.0
2018-Jul-20 04:00N 29°45' W 095°11'0 0.0
2018-Jul-20 03:27N 29°45' W 095°11'0 0.0
2018-Jul-20 02:42N 29°45' W 095°11'0 0.0
2018-Jul-20 02:24N 29°45' W 095°11'0 0.0
2018-Jul-19 17:51N 29°45' W 095°11'0 0.0
2018-Jul-19 17:09N 29°45' W 095°11'0 0.0
2018-Jul-19 16:51N 29°45' W 095°11'0 0.0
2018-Jul-19 14:33N 29°45' W 095°11'0 0.1
2018-Jul-19 14:27N 29°45' W 095°11'0 0.0
2018-Jul-19 13:27N 29°45' W 095°11'0 0.0
2018-Jul-19 12:57N 29°45' W 095°11'0 0.0
2018-Jul-19 12:30N 29°45' W 095°11'0 0.0
2018-Jul-19 12:00N 29°45' W 095°11'0 0.0
2018-Jul-19 11:27N 29°45' W 095°11'0 0.0
2018-Jul-19 10:57N 29°45' W 095°11'0 0.0
2018-Jul-19 10:30N 29°45' W 095°11'0 0.0
2018-Jul-19 10:00N 29°45' W 095°11'0 0.0
2018-Jul-19 09:30N 29°45' W 095°11'0 0.0
2018-Jul-19 09:00N 29°45' W 095°11'0 0.0
2018-Jul-19 08:30N 29°45' W 095°11'0 0.0
2018-Jul-19 08:00N 29°45' W 095°11'0 0.0
2018-Jul-19 07:30N 29°45' W 095°11'0 0.0
2018-Jul-19 07:00N 29°45' W 095°11'0 0.0
2018-Jul-19 06:30N 29°45' W 095°11'0 0.0
2018-Jul-19 05:54N 29°45' W 095°11'0 0.0
2018-Jul-19 05:30N 29°45' W 095°11'0 0.0
2018-Jul-19 04:57N 29°45' W 095°11'0 0.0
2018-Jul-19 04:30N 29°45' W 095°11'0 0.0
2018-Jul-19 03:42N 29°45' W 095°11'0 0.0
2018-Jul-19 03:30N 29°45' W 095°11'0 0.0
2018-Jul-19 03:00N 29°45' W 095°11'0 0.0
2018-Jul-19 02:27N 29°45' W 095°11'0 0.0
2018-Jul-19 01:57N 29°45' W 095°11'0 0.0
2018-Jul-18 15:56N 29°45' W 095°11'1 1.9
2018-Jul-18 15:30N 29°45' W 095°10'3 6.1
2018-Jul-18 15:00N 29°45' W 095°06'4 6.9
2018-Jul-18 14:23N 29°44' W 095°01'1011.1
2018-Jul-18 13:30N 29°35' W 094°56'611.3
2018-Jul-18 13:00N 29°30' W 094°52'713.2
2018-Jul-18 12:30N 29°24' W 094°49'611.7
2018-Jul-18 12:00N 29°21' W 094°44'612.4
2018-Jul-18 11:29N 29°19' W 094°37'1111.2
2018-Jul-18 10:30N 29°12' W 094°27'510.5
2018-Jul-18 10:00N 29°07' W 094°25'611.9
2018-Jul-18 09:28N 29°01' W 094°25'611.9
2018-Jul-18 09:00N 28°55' W 094°25'611.9
2018-Jul-18 08:30N 28°49' W 094°24'713.6
2018-Jul-18 08:01N 28°42' W 094°24'714.3
2018-Jul-18 07:30N 28°35' W 094°25'714.3
2018-Jul-18 06:59N 28°28' W 094°24'714.2
2018-Jul-18 06:30N 28°21' W 094°24'714.2
2018-Jul-18 05:59N 28°14' W 094°25'814.3
2018-Jul-18 05:26N 28°06' W 094°25'  
Track history (hours):
 
Tides and Currents Weather Stations Pressure Air Temp Water Temp Dewpoint Dewpoint Depression Visibility Wind Speed Wind Dir Waves Ship Positions

Dolfijngracht

Last reported at 2018-Jul-21 21:25 UTC. Time now 2018-Jul-23 05:57 UTC.
Position N 27°12' W 090°52'.

Length 157 m; draft 7 m.

Type: Cargo ship. MMSI: 245033000.

Date/timePositionNaut miles runAvg speedWind from/ knotsBaromVisibWave heightAir tempDewpointWater temp
2018-Jul-21 21:25N 27°12' W 090°52'615.7
2018-Jul-21 21:00N 27°15' W 090°59'6915.6
2018-Jul-21 16:36N 27°42' W 092°10'415.3
2018-Jul-21 16:21N 27°43' W 092°14'3314.3
2018-Jul-21 14:02N 28°02' W 092°45'214.0
2018-Jul-21 13:54N 28°04' W 092°46'814.0
2018-Jul-21 13:20N 28°11' W 092°51'414.0
2018-Jul-21 13:00N 28°14' W 092°55'714.4
2018-Jul-21 12:30N 28°18' W 093°02'714.8
2018-Jul-21 12:00N 28°22' W 093°08'814.8
2018-Jul-21 11:29N 28°27' W 093°15'714.5
2018-Jul-21 11:00N 28°31' W 093°22'714.7
2018-Jul-21 10:30N 28°35' W 093°29'814.9
2018-Jul-21 10:00N 28°39' W 093°36'714.8
2018-Jul-21 09:30N 28°44' W 093°43'714.6
2018-Jul-21 08:59N 28°48' W 093°50'714.6
2018-Jul-21 08:30N 28°52' W 093°56'814.7
2018-Jul-21 08:00N 28°56' W 094°03'714.7
2018-Jul-21 07:30N 29°00' W 094°10'714.5
2018-Jul-21 07:00N 29°05' W 094°16'714.2
2018-Jul-21 06:30N 29°08' W 094°24'713.7
2018-Jul-21 06:00N 29°11' W 094°30'713.3
2018-Jul-21 05:30N 29°16' W 094°36'1 2.9
2018-Jul-21 05:00N 29°17' W 094°37'0 0.0
2018-Jul-21 04:30N 29°17' W 094°37'0 0.0
2018-Jul-21 03:57N 29°17' W 094°37'0 0.0
2018-Jul-21 03:30N 29°17' W 094°37'0 0.0
2018-Jul-21 03:00N 29°17' W 094°37'0 0.0
2018-Jul-21 02:30N 29°17' W 094°37'0 0.0
2018-Jul-21 02:00N 29°17' W 094°37'0 0.1
2018-Jul-21 01:30N 29°17' W 094°37'1 1.3
2018-Jul-21 01:00N 29°18' W 094°37'611.2
2018-Jul-21 00:30N 29°21' W 094°43'611.7
2018-Jul-21 00:00N 29°23' W 094°49'714.1
2018-Jul-20 23:30N 29°30' W 094°52'713.5
2018-Jul-20 23:00N 29°35' W 094°56'612.6
2018-Jul-20 22:30N 29°41' W 094°59'4 8.1
2018-Jul-20 22:00N 29°44' W 095°02'3 6.1
2018-Jul-20 21:30N 29°45' W 095°06'3 6.1
2018-Jul-20 21:00N 29°44' W 095°09'1 0.2
2018-Jul-20 14:24N 29°45' W 095°11'0 0.0
2018-Jul-20 13:54N 29°45' W 095°11'0 0.0
2018-Jul-20 13:27N 29°45' W 095°11'0 0.0
2018-Jul-20 13:00N 29°45' W 095°11'0 0.0
2018-Jul-20 12:30N 29°45' W 095°11'0 0.0
2018-Jul-20 11:57N 29°45' W 095°11'0 0.0
2018-Jul-20 11:30N 29°45' W 095°11'0 0.0
2018-Jul-20 10:57N 29°45' W 095°11'0 0.0
2018-Jul-20 10:27N 29°45' W 095°11'0 0.0
2018-Jul-20 09:57N 29°45' W 095°11'0 0.0
2018-Jul-20 09:30N 29°45' W 095°11'0 0.0
2018-Jul-20 09:00N 29°45' W 095°11'0 0.0
2018-Jul-20 08:30N 29°45' W 095°11'0 0.0
2018-Jul-20 08:00N 29°45' W 095°11'0 0.0
2018-Jul-20 07:24N 29°45' W 095°11'0 0.0
2018-Jul-20 07:00N 29°45' W 095°11'0 0.0
2018-Jul-20 06:30N 29°45' W 095°11'0 0.0
2018-Jul-20 06:00N 29°45' W 095°11'0 0.0
2018-Jul-20 05:30N 29°45' W 095°11'0 0.0
2018-Jul-20 05:00N 29°45' W 095°11'0 0.0
2018-Jul-20 04:30N 29°45' W 095°11'0 0.0
2018-Jul-20 04:00N 29°45' W 095°11'0 0.0
2018-Jul-20 03:27N 29°45' W 095°11'0 0.0
2018-Jul-20 02:42N 29°45' W 095°11'0 0.0
2018-Jul-20 02:24N 29°45' W 095°11'0 0.0
2018-Jul-19 17:51N 29°45' W 095°11'0 0.0
2018-Jul-19 17:09N 29°45' W 095°11'0 0.0
2018-Jul-19 16:51N 29°45' W 095°11'0 0.0
2018-Jul-19 14:33N 29°45' W 095°11'0 0.1
2018-Jul-19 14:27N 29°45' W 095°11'0 0.0
2018-Jul-19 13:27N 29°45' W 095°11'0 0.0
2018-Jul-19 12:57N 29°45' W 095°11'0 0.0
2018-Jul-19 12:30N 29°45' W 095°11'0 0.0
2018-Jul-19 12:00N 29°45' W 095°11'0 0.0
2018-Jul-19 11:27N 29°45' W 095°11'0 0.0
2018-Jul-19 10:57N 29°45' W 095°11'0 0.0
2018-Jul-19 10:30N 29°45' W 095°11'0 0.0
2018-Jul-19 10:00N 29°45' W 095°11'0 0.0
2018-Jul-19 09:30N 29°45' W 095°11'0 0.0
2018-Jul-19 09:00N 29°45' W 095°11'0 0.0
2018-Jul-19 08:30N 29°45' W 095°11'0 0.0
2018-Jul-19 08:00N 29°45' W 095°11'0 0.0
2018-Jul-19 07:30N 29°45' W 095°11'0 0.0
2018-Jul-19 07:00N 29°45' W 095°11'0 0.0
2018-Jul-19 06:30N 29°45' W 095°11'0 0.0
2018-Jul-19 05:54N 29°45' W 095°11'0 0.0
2018-Jul-19 05:30N 29°45' W 095°11'0 0.0
2018-Jul-19 04:57N 29°45' W 095°11'0 0.0
2018-Jul-19 04:30N 29°45' W 095°11'0 0.0
2018-Jul-19 03:42N 29°45' W 095°11'0 0.0
2018-Jul-19 03:30N 29°45' W 095°11'0 0.0
2018-Jul-19 03:00N 29°45' W 095°11'0 0.0
2018-Jul-19 02:27N 29°45' W 095°11'0 0.0
2018-Jul-19 01:57N 29°45' W 095°11'0 0.0
2018-Jul-18 15:56N 29°45' W 095°11'1 1.9
2018-Jul-18 15:30N 29°45' W 095°10'3 6.1
2018-Jul-18 15:00N 29°45' W 095°06'4 6.9
2018-Jul-18 14:23N 29°44' W 095°01'1011.1
2018-Jul-18 13:30N 29°35' W 094°56'611.3
2018-Jul-18 13:00N 29°30' W 094°52'713.2
2018-Jul-18 12:30N 29°24' W 094°49'611.7
2018-Jul-18 12:00N 29°21' W 094°44'612.4
2018-Jul-18 11:29N 29°19' W 094°37'1111.2
2018-Jul-18 10:30N 29°12' W 094°27'510.5
2018-Jul-18 10:00N 29°07' W 094°25'611.9
2018-Jul-18 09:28N 29°01' W 094°25'611.9
2018-Jul-18 09:00N 28°55' W 094°25'611.9
2018-Jul-18 08:30N 28°49' W 094°24'713.6
2018-Jul-18 08:01N 28°42' W 094°24'714.3
2018-Jul-18 07:30N 28°35' W 094°25'714.3
2018-Jul-18 06:59N 28°28' W 094°24'714.2
2018-Jul-18 06:30N 28°21' W 094°24'714.2
2018-Jul-18 05:59N 28°14' W 094°25'814.3
2018-Jul-18 05:26N 28°06' W 094°25'  

Dump ship's entire track history